Arlington, Kansas
Current Conditions -  °F | °C
As of 10:52 AM on Thursday 23 Oct 2014 (Local Time) from KHUT Reporting Station
Overcast Overcast  
Wind Chill: 64°   Ceiling: 3800
Heat Index: 64°   Visibility: 10mi
Dew Point: 57°   Wind: 6mph
Humidity: 78%   Direction: 210°SSW
Pressure: 30.12"   Gusts: NA
Location:  37.9°N, 98.18°W
Report Text: KHUT 231552Z 21005KT 10SM OVC038 18/14 A3012 RMK AO2 SLP184 T01780139
Loading
Personal Weather Stations






























Interactive Weather Map
Tropical Storm Tracking
New forecast layout! Learn more

10-Day Weather Forecast

Advertisements
Track Severe Weather on mobile